createdAt,value
2024-03-10T00:02:13.111Z,14.95
2024-03-10T00:04:42.886Z,17.27
2024-03-10T00:07:16.604Z,16.48
2024-03-10T00:09:46.850Z,15.20
2024-03-10T00:12:15.849Z,16.45
2024-03-10T00:14:44.472Z,17.33
2024-03-10T00:17:13.197Z,16.25
2024-03-10T00:19:42.019Z,16.20
2024-03-10T00:22:11.332Z,16.38
2024-03-10T00:24:41.015Z,16.13
2024-03-10T00:27:09.458Z,15.73
2024-03-10T00:29:38.885Z,16.17
2024-03-10T00:32:08.435Z,16.35
2024-03-10T00:34:37.500Z,16.08
2024-03-10T00:37:07.229Z,15.95
2024-03-10T00:39:36.093Z,16.23
2024-03-10T00:42:07.312Z,16.27
2024-03-10T00:44:36.009Z,17.02
2024-03-10T00:47:06.680Z,17.15
2024-03-10T00:49:36.178Z,17.05
2024-03-10T00:52:08.832Z,16.48
2024-03-10T00:54:38.491Z,16.90
2024-03-10T00:57:10.672Z,16.85
2024-03-10T00:59:40.239Z,16.48
2024-03-10T01:02:08.823Z,16.35
2024-03-10T01:04:37.772Z,16.23
2024-03-10T01:07:08.310Z,16.73
2024-03-10T01:09:36.841Z,16.48
2024-03-10T01:12:07.031Z,16.30
2024-03-10T01:14:36.928Z,16.23
2024-03-10T01:17:08.101Z,17.52
2024-03-10T01:19:36.843Z,16.63
2024-03-10T01:22:07.809Z,17.17
2024-03-10T01:24:36.360Z,17.27
2024-03-10T01:27:04.764Z,17.25
2024-03-10T01:29:34.478Z,17.95
2024-03-10T01:32:04.810Z,17.52
2024-03-10T01:34:33.233Z,17.42
2024-03-10T01:37:02.046Z,17.23
2024-03-10T01:39:31.955Z,17.42
2024-03-10T01:42:00.518Z,17.42
2024-03-10T01:44:29.847Z,17.58
2024-03-10T01:46:58.679Z,17.73
2024-03-10T01:49:28.914Z,17.63
2024-03-10T01:51:59.266Z,18.17
2024-03-10T01:54:32.196Z,17.80
2024-03-10T01:57:01.055Z,17.92
2024-03-10T01:59:31.818Z,17.90
2024-03-10T02:02:01.446Z,17.67
2024-03-10T02:04:33.270Z,17.70
2024-03-10T02:07:02.234Z,18.17
2024-03-10T02:09:32.245Z,18.33
2024-03-10T02:12:00.886Z,18.08
2024-03-10T02:14:29.345Z,18.50
2024-03-10T02:16:59.143Z,17.52
2024-03-10T02:19:27.589Z,17.75
2024-03-10T02:21:57.909Z,17.67
2024-03-10T02:24:34.981Z,17.55
2024-03-10T02:27:08.318Z,17.75
2024-03-10T02:29:57.130Z,17.02
2024-03-10T02:32:43.221Z,16.88
2024-03-10T02:35:29.505Z,18.05
2024-03-10T02:38:15.778Z,17.13
2024-03-10T02:41:01.617Z,18.65
2024-03-10T02:43:48.558Z,17.33
2024-03-10T02:46:34.314Z,18.30
2024-03-10T02:49:04.059Z,17.33
2024-03-10T02:51:32.795Z,17.38
2024-03-10T02:54:02.002Z,18.50
2024-03-10T02:56:31.031Z,17.98
2024-03-10T02:59:03.175Z,17.83
2024-03-10T03:01:33.598Z,18.27
2024-03-10T03:04:01.865Z,18.05
2024-03-10T03:06:30.139Z,18.30
2024-03-10T03:08:59.258Z,18.77
2024-03-10T03:11:28.000Z,18.15
2024-03-10T03:13:56.522Z,18.00
2024-03-10T03:16:27.174Z,18.15
2024-03-10T03:18:55.804Z,18.20
2024-03-10T03:21:24.946Z,18.42
2024-03-10T03:23:54.235Z,18.73
2024-03-10T03:26:24.313Z,17.90
2024-03-10T03:28:53.321Z,17.52
2024-03-10T03:31:21.746Z,17.63
2024-03-10T03:33:53.836Z,17.60
2024-03-10T03:36:23.406Z,19.25
2024-03-10T03:38:51.973Z,18.25
2024-03-10T03:41:20.562Z,18.45
2024-03-10T03:43:49.244Z,18.27
2024-03-10T03:46:18.612Z,17.85
2024-03-10T03:48:47.332Z,18.25
2024-03-10T03:51:17.575Z,17.85
2024-03-10T03:53:47.993Z,18.17
2024-03-10T03:56:18.743Z,18.17
2024-03-10T03:58:49.414Z,18.77
2024-03-10T04:01:18.257Z,18.67
2024-03-10T04:03:46.794Z,19.27
2024-03-10T04:06:16.602Z,18.40
2024-03-10T04:08:45.995Z,19.48
2024-03-10T04:11:14.767Z,20.45
2024-03-10T04:13:43.668Z,19.63
2024-03-10T04:16:12.484Z,20.50
2024-03-10T04:18:42.183Z,20.23
2024-03-10T04:21:11.393Z,20.27
2024-03-10T04:23:43.351Z,20.42
2024-03-10T04:28:40.802Z,19.73
2024-03-10T04:31:11.201Z,20.38
2024-03-10T04:33:43.163Z,19.77
2024-03-10T04:38:47.629Z,19.40
2024-03-10T04:41:16.044Z,19.17
2024-03-10T04:43:46.978Z,19.33
2024-03-10T04:46:19.036Z,20.52
2024-03-10T04:51:21.810Z,18.58
2024-03-10T04:56:23.277Z,19.85
2024-03-10T04:58:54.353Z,19.70
2024-03-10T05:01:23.849Z,19.90
2024-03-10T05:03:56.041Z,20.23
2024-03-10T05:06:27.198Z,19.15
2024-03-10T05:08:57.192Z,19.23
2024-03-10T05:11:27.774Z,19.42
2024-03-10T05:13:58.952Z,19.42
2024-03-10T05:16:29.149Z,20.20
2024-03-10T05:18:58.634Z,19.48
2024-03-10T05:21:29.181Z,19.13
2024-03-10T05:23:58.912Z,19.17
2024-03-10T05:26:29.595Z,18.45
2024-03-10T05:28:58.281Z,19.48
2024-03-10T05:31:31.876Z,19.23
2024-03-10T05:34:02.114Z,18.50
2024-03-10T05:36:34.212Z,19.08
2024-03-10T05:39:06.456Z,18.33
2024-03-10T05:41:35.505Z,19.23
2024-03-10T05:44:08.052Z,19.02
2024-03-10T05:46:39.233Z,19.38
2024-03-10T05:49:09.201Z,18.80
2024-03-10T05:51:37.714Z,18.70
2024-03-10T05:54:09.299Z,18.85
2024-03-10T05:56:42.269Z,18.23
2024-03-10T05:59:12.084Z,19.15
2024-03-10T06:01:41.406Z,19.20
2024-03-10T06:04:11.788Z,18.83
2024-03-10T06:06:45.072Z,18.83
2024-03-10T06:09:16.448Z,18.33
2024-03-10T06:11:49.928Z,19.17
2024-03-10T06:14:20.636Z,18.75
2024-03-10T06:16:51.778Z,18.77
2024-03-10T06:19:38.806Z,19.43
2024-03-10T06:22:26.414Z,18.60
2024-03-10T06:25:14.075Z,19.02
2024-03-10T06:27:43.537Z,18.95
2024-03-10T06:30:13.588Z,18.33
2024-03-10T06:32:42.245Z,18.80
2024-03-10T06:35:13.677Z,18.50
2024-03-10T06:37:44.142Z,17.70
2024-03-10T06:40:16.161Z,18.20
2024-03-10T06:45:20.179Z,20.02
2024-03-10T06:47:53.235Z,20.00
2024-03-10T06:50:22.229Z,20.75
2024-03-10T06:52:51.664Z,20.52
2024-03-10T06:55:22.113Z,20.58
2024-03-10T06:57:51.522Z,19.77
2024-03-10T07:00:26.302Z,19.60
2024-03-10T07:02:57.180Z,19.90
2024-03-10T07:05:26.133Z,19.05
2024-03-10T07:07:55.346Z,18.50
2024-03-10T07:10:25.813Z,20.08
2024-03-10T07:12:55.818Z,18.65
2024-03-10T07:15:24.686Z,18.90
2024-03-10T07:17:53.340Z,18.85
2024-03-10T07:20:24.320Z,19.23
2024-03-10T07:22:55.132Z,19.80
2024-03-10T07:25:27.940Z,19.17
2024-03-10T07:27:58.086Z,19.85
2024-03-10T07:30:27.993Z,20.13
2024-03-10T07:32:57.648Z,20.10
2024-03-10T07:35:27.814Z,20.92
2024-03-10T07:37:57.906Z,21.05
2024-03-10T07:40:32.721Z,20.73
2024-03-10T07:43:06.245Z,20.45
2024-03-10T07:45:36.704Z,20.45
2024-03-10T07:48:07.077Z,20.08
2024-03-10T07:50:36.957Z,20.27
2024-03-10T07:53:06.580Z,20.38
2024-03-10T07:55:39.313Z,20.05
2024-03-10T07:58:12.985Z,20.45
2024-03-10T08:00:41.388Z,20.15
2024-03-10T08:03:10.614Z,18.98
2024-03-10T08:05:39.395Z,19.48
2024-03-10T08:08:11.229Z,18.60
2024-03-10T08:13:12.051Z,18.63
2024-03-10T08:15:41.563Z,18.90
2024-03-10T08:18:09.976Z,19.17
2024-03-10T08:20:38.646Z,17.75
2024-03-10T08:23:07.660Z,18.95
2024-03-10T08:25:37.255Z,18.83
2024-03-10T08:28:07.472Z,18.60
2024-03-10T08:30:36.377Z,17.83
2024-03-10T08:33:05.992Z,18.50
2024-03-10T08:35:35.399Z,18.42
2024-03-10T08:38:04.304Z,18.35
2024-03-10T08:40:36.351Z,18.73
2024-03-10T08:45:47.242Z,18.52
2024-03-10T08:48:19.620Z,17.02
2024-03-10T08:50:48.253Z,17.33
2024-03-10T08:53:18.269Z,17.77
2024-03-10T08:55:50.936Z,17.83
2024-03-10T08:58:22.968Z,17.45
2024-03-10T09:03:25.831Z,17.77
2024-03-10T09:05:59.977Z,17.08
2024-03-10T09:08:30.960Z,16.05
2024-03-10T09:11:04.557Z,16.73
2024-03-10T09:13:37.262Z,17.17
2024-03-10T09:18:42.984Z,16.83
2024-03-10T09:23:44.771Z,16.77
2024-03-10T09:26:14.737Z,17.38
2024-03-10T09:28:46.833Z,16.67
2024-03-10T09:31:18.347Z,17.17
2024-03-10T09:33:48.674Z,16.83
2024-03-10T09:36:19.408Z,16.10
2024-03-10T09:38:48.022Z,16.70
2024-03-10T09:41:18.336Z,16.88
2024-03-10T09:43:51.797Z,16.05
2024-03-10T09:46:24.061Z,16.67
2024-03-10T09:48:54.333Z,15.70
2024-03-10T09:51:26.250Z,15.23
2024-03-10T09:54:00.146Z,15.52
2024-03-10T09:56:32.635Z,15.52
2024-03-10T09:59:05.948Z,15.10
2024-03-10T10:01:40.437Z,14.43
2024-03-10T10:04:11.409Z,14.38
2024-03-10T10:06:42.914Z,13.35
2024-03-10T10:09:15.069Z,14.75
2024-03-10T10:11:48.883Z,14.27
2024-03-10T10:14:24.653Z,14.02
2024-03-10T10:16:57.684Z,13.63
2024-03-10T10:19:27.309Z,14.23
2024-03-10T10:21:59.531Z,14.13
2024-03-10T10:24:31.496Z,14.80
2024-03-10T10:27:01.326Z,13.77
2024-03-10T10:29:30.513Z,13.93
2024-03-10T10:32:02.165Z,14.25
2024-03-10T10:34:30.921Z,14.93
2024-03-10T10:36:59.254Z,13.85
2024-03-10T10:39:30.873Z,13.43
2024-03-10T10:44:33.423Z,13.50
2024-03-10T10:47:04.346Z,13.38
2024-03-10T10:49:35.095Z,13.07
2024-03-10T10:52:04.313Z,13.40
2024-03-10T10:54:34.399Z,13.45
2024-03-10T10:57:10.287Z,13.63
2024-03-10T10:59:47.578Z,14.23
2024-03-10T11:02:21.038Z,13.63
2024-03-10T11:04:50.532Z,14.63
2024-03-10T11:07:28.972Z,13.35
2024-03-10T11:10:01.319Z,13.25
2024-03-10T11:12:29.649Z,16.58
2024-03-10T11:14:59.664Z,14.50
2024-03-10T11:17:35.925Z,15.98
2024-03-10T11:20:10.708Z,13.23
2024-03-10T11:22:54.276Z,13.40
2024-03-10T11:25:28.105Z,13.13
2024-03-10T11:28:03.393Z,12.63
2024-03-10T11:30:53.384Z,12.45
2024-03-10T11:33:29.581Z,12.88
2024-03-10T11:36:01.618Z,12.50
2024-03-10T11:38:33.960Z,13.10
2024-03-10T11:41:09.953Z,12.80
2024-03-10T11:43:43.176Z,12.70
2024-03-10T11:46:23.453Z,13.23
2024-03-10T11:48:56.909Z,13.25
2024-03-10T11:51:29.131Z,13.35
2024-03-10T11:54:00.587Z,12.45
2024-03-10T11:56:30.755Z,12.45
2024-03-10T11:59:00.677Z,13.02
2024-03-10T12:01:29.834Z,12.63
2024-03-10T12:04:07.493Z,12.27
2024-03-10T12:06:38.767Z,12.63
2024-03-10T12:09:13.766Z,13.03
2024-03-10T12:11:45.312Z,12.32
2024-03-10T12:14:14.841Z,12.73
2024-03-10T12:16:49.632Z,12.40
2024-03-10T12:19:21.768Z,13.07
2024-03-10T12:21:50.414Z,11.88
2024-03-10T12:24:20.124Z,12.45
2024-03-10T12:26:48.749Z,12.43
2024-03-10T12:29:21.839Z,12.18
2024-03-10T12:31:53.890Z,12.27
2024-03-10T12:34:25.564Z,12.63
2024-03-10T12:36:54.223Z,12.13
2024-03-10T12:39:24.632Z,12.65
2024-03-10T12:41:53.513Z,12.30
2024-03-10T12:44:23.566Z,11.93
2024-03-10T12:46:52.743Z,11.50
2024-03-10T12:49:21.813Z,11.90
2024-03-10T12:51:51.587Z,11.52
2024-03-10T12:54:20.851Z,12.30
2024-03-10T12:56:49.630Z,12.00
2024-03-10T12:59:19.844Z,11.60
2024-03-10T13:01:48.268Z,11.82
2024-03-10T13:04:18.283Z,11.63
2024-03-10T13:06:48.105Z,12.27
2024-03-10T13:09:17.932Z,12.18
2024-03-10T13:11:47.735Z,11.52
2024-03-10T13:14:17.772Z,11.60
2024-03-10T13:16:46.802Z,11.93
2024-03-10T13:19:15.273Z,11.35
2024-03-10T13:21:44.224Z,11.65
2024-03-10T13:24:14.645Z,11.18
2024-03-10T13:26:44.964Z,10.85
2024-03-10T13:29:13.525Z,10.80
2024-03-10T13:31:44.178Z,10.88
2024-03-10T13:34:12.861Z,10.43
2024-03-10T13:36:41.473Z,10.40
2024-03-10T13:39:11.770Z,9.05
2024-03-10T13:41:41.613Z,9.05
2024-03-10T13:44:12.180Z,9.00
2024-03-10T13:46:41.034Z,8.77
2024-03-10T13:49:12.202Z,8.50
2024-03-10T13:51:49.225Z,8.55
2024-03-10T13:54:18.879Z,9.38
2024-03-10T13:56:49.584Z,8.60
2024-03-10T13:59:21.910Z,8.60
2024-03-10T14:01:54.752Z,8.68
2024-03-10T14:04:23.565Z,8.43
2024-03-10T14:06:52.887Z,8.40
2024-03-10T14:09:24.158Z,7.88
2024-03-10T14:11:54.752Z,8.07
2024-03-10T14:14:24.773Z,8.27
2024-03-10T14:16:54.215Z,8.70
2024-03-10T14:19:23.287Z,8.85
2024-03-10T14:21:54.664Z,8.57
2024-03-10T14:24:24.341Z,9.13
2024-03-10T14:26:55.199Z,9.07
2024-03-10T14:29:26.412Z,9.30
2024-03-10T14:31:56.508Z,9.55
2024-03-10T14:34:24.955Z,9.30
2024-03-10T14:36:54.072Z,9.18
2024-03-10T14:39:24.388Z,9.55
2024-03-10T14:41:55.163Z,9.40
2024-03-10T14:44:26.104Z,9.50
2024-03-10T14:46:54.594Z,9.57
2024-03-10T14:49:23.173Z,9.52
2024-03-10T14:51:52.407Z,9.77
2024-03-10T14:54:20.872Z,9.30
2024-03-10T14:56:49.434Z,8.95
2024-03-10T14:59:18.024Z,9.32
2024-03-10T15:01:50.133Z,9.20
2024-03-10T15:04:18.766Z,8.88
2024-03-10T15:06:49.721Z,9.27
2024-03-10T15:09:18.407Z,9.37
2024-03-10T15:11:50.111Z,9.10
2024-03-10T15:14:19.162Z,8.85
2024-03-10T15:16:50.977Z,9.20
2024-03-10T15:19:22.511Z,9.50
2024-03-10T15:21:51.000Z,9.57
2024-03-10T15:24:20.593Z,9.57
2024-03-10T15:26:52.026Z,9.55
2024-03-10T15:29:23.969Z,9.07
2024-03-10T15:34:24.383Z,10.00
2024-03-10T15:36:53.981Z,9.70
2024-03-10T15:39:26.119Z,10.15
2024-03-10T15:41:55.541Z,9.68
2024-03-10T15:44:26.271Z,9.88
2024-03-10T15:47:02.012Z,10.13
2024-03-10T15:49:32.563Z,10.45
2024-03-10T15:52:01.009Z,10.60
2024-03-10T15:54:30.582Z,10.80
2024-03-10T15:57:01.006Z,11.00
2024-03-10T15:59:29.510Z,11.10
2024-03-10T16:01:59.593Z,11.88
2024-03-10T16:04:29.846Z,11.52
2024-03-10T16:06:59.072Z,12.27
2024-03-10T16:09:27.777Z,12.10
2024-03-10T16:11:59.357Z,12.35
2024-03-10T16:14:29.066Z,12.43
2024-03-10T16:16:59.068Z,13.30
2024-03-10T16:19:30.419Z,13.38
2024-03-10T16:21:59.101Z,12.57
2024-03-10T16:24:30.510Z,12.90
2024-03-10T16:26:59.766Z,12.95
2024-03-10T16:29:28.796Z,11.98
2024-03-10T16:31:57.680Z,12.43
2024-03-10T16:34:30.320Z,12.80
2024-03-10T16:37:00.616Z,13.57
2024-03-10T16:39:30.284Z,13.18
2024-03-10T16:42:00.616Z,13.48
2024-03-10T16:44:29.063Z,13.15
2024-03-10T16:46:58.902Z,12.93
2024-03-10T16:49:28.918Z,13.38
2024-03-10T16:51:58.367Z,14.45
2024-03-10T16:54:26.828Z,15.60
2024-03-10T16:56:55.207Z,15.27
2024-03-10T16:59:23.896Z,15.73
2024-03-10T17:01:54.122Z,15.13
2024-03-10T17:04:22.585Z,15.00
2024-03-10T17:06:52.884Z,15.68
2024-03-10T17:09:22.317Z,15.32
2024-03-10T17:11:51.650Z,15.25
2024-03-10T17:14:21.527Z,14.02
2024-03-10T17:16:50.132Z,14.20
2024-03-10T17:19:19.270Z,13.25
2024-03-10T17:21:48.239Z,13.57
2024-03-10T17:24:20.060Z,13.10
2024-03-10T17:26:49.494Z,13.05
2024-03-10T17:29:18.026Z,13.63
2024-03-10T17:31:47.197Z,12.80
2024-03-10T17:34:17.601Z,13.43
2024-03-10T17:36:46.470Z,13.10
2024-03-10T17:39:15.756Z,13.05
2024-03-10T17:41:50.966Z,14.38
2024-03-10T17:44:22.402Z,14.35
2024-03-10T17:46:54.158Z,14.68
2024-03-10T17:49:23.601Z,14.80
2024-03-10T17:51:53.141Z,14.88
2024-03-10T17:54:21.537Z,15.65
2024-03-10T17:56:52.300Z,15.25
2024-03-10T17:59:20.589Z,15.25
2024-03-10T18:01:49.666Z,15.63
2024-03-10T18:04:19.405Z,15.93
2024-03-10T18:06:49.595Z,15.88
2024-03-10T18:09:20.938Z,15.77
2024-03-10T18:11:52.525Z,17.08
2024-03-10T18:14:21.204Z,16.88
2024-03-10T18:16:51.389Z,16.50
2024-03-10T18:19:20.421Z,17.20
2024-03-10T18:21:51.515Z,17.27
2024-03-10T18:24:21.682Z,17.97
2024-03-10T18:26:50.958Z,18.60
2024-03-10T18:29:24.866Z,17.80
2024-03-10T18:31:59.402Z,17.98
2024-03-10T18:34:29.297Z,18.10
2024-03-10T18:36:57.852Z,18.63
2024-03-10T18:39:26.695Z,18.33
2024-03-10T18:41:58.025Z,17.95
2024-03-10T18:44:29.652Z,19.30
2024-03-10T18:46:58.789Z,17.90
2024-03-10T18:49:29.017Z,18.70
2024-03-10T18:51:58.933Z,18.02
2024-03-10T18:54:28.103Z,18.92
2024-03-10T18:56:58.359Z,18.92
2024-03-10T18:59:28.393Z,18.10
2024-03-10T19:01:58.309Z,18.88
2024-03-10T19:04:27.082Z,19.33
2024-03-10T19:06:55.570Z,18.77
2024-03-10T19:09:24.425Z,20.98
2024-03-10T19:11:53.880Z,20.45
2024-03-10T19:14:24.405Z,19.45
2024-03-10T19:16:56.372Z,19.13
2024-03-10T19:19:25.767Z,19.63
2024-03-10T19:21:56.016Z,18.45
2024-03-10T19:24:25.593Z,18.42
2024-03-10T19:26:56.211Z,19.27
2024-03-10T19:29:26.179Z,17.50
2024-03-10T19:31:59.766Z,18.08
2024-03-10T19:34:28.256Z,17.98
2024-03-10T19:37:02.031Z,17.92
2024-03-10T19:39:30.912Z,18.42
2024-03-10T19:42:01.483Z,17.67
2024-03-10T19:44:29.948Z,18.23
2024-03-10T19:47:00.833Z,19.15
2024-03-10T19:49:30.323Z,17.20
2024-03-10T19:51:58.658Z,17.08
2024-03-10T19:54:30.076Z,16.50
2024-03-10T19:56:59.528Z,17.70
2024-03-10T19:59:27.975Z,17.20
2024-03-10T20:01:56.697Z,16.17
2024-03-10T20:04:29.762Z,16.00
2024-03-10T20:07:01.706Z,15.57
2024-03-10T20:09:32.764Z,15.73
2024-03-10T20:12:02.446Z,15.30
2024-03-10T20:14:32.086Z,15.48
2024-03-10T20:17:00.694Z,15.13
2024-03-10T20:19:33.156Z,14.98
2024-03-10T20:22:04.385Z,15.07
2024-03-10T20:24:33.194Z,14.90
2024-03-10T20:27:03.210Z,14.60
2024-03-10T20:29:32.539Z,15.10
2024-03-10T20:32:02.613Z,14.95
2024-03-10T20:34:35.091Z,15.07
2024-03-10T20:37:03.532Z,16.10
2024-03-10T20:39:34.960Z,16.70
2024-03-10T20:42:06.027Z,16.90
2024-03-10T20:44:34.617Z,17.77
2024-03-10T20:47:09.321Z,17.35
2024-03-10T20:49:41.876Z,16.88
2024-03-10T20:52:13.519Z,17.23
2024-03-10T20:54:45.501Z,17.38
2024-03-10T20:57:14.641Z,17.25
2024-03-10T20:59:45.642Z,17.75
2024-03-10T21:02:18.611Z,17.15
2024-03-10T21:04:48.616Z,17.55
2024-03-10T21:07:22.024Z,17.13
2024-03-10T21:09:52.983Z,16.15
2024-03-10T21:12:25.663Z,16.70
2024-03-10T21:14:56.423Z,18.20
2024-03-10T21:17:25.914Z,17.90
2024-03-10T21:19:55.785Z,16.38
2024-03-10T21:22:25.432Z,17.35
2024-03-10T21:24:54.411Z,17.63
2024-03-10T21:27:23.162Z,17.95
2024-03-10T21:29:53.169Z,17.23
2024-03-10T21:32:22.124Z,16.38
2024-03-10T21:34:53.280Z,17.80
2024-03-10T21:37:23.319Z,17.23
2024-03-10T21:39:51.886Z,16.52
2024-03-10T21:42:20.960Z,16.50
2024-03-10T21:44:51.234Z,16.48
2024-03-10T21:47:25.048Z,15.30
2024-03-10T21:49:57.238Z,15.27
2024-03-10T21:52:29.507Z,15.57
2024-03-10T21:54:58.194Z,15.48
2024-03-10T21:57:28.130Z,15.93
2024-03-10T21:59:59.647Z,15.75
2024-03-10T22:02:28.644Z,15.98
2024-03-10T22:04:59.763Z,15.93
2024-03-10T22:07:31.104Z,15.10
2024-03-10T22:10:04.328Z,14.95
2024-03-10T22:12:33.096Z,15.20
2024-03-10T22:15:05.589Z,15.80
2024-03-10T22:17:35.725Z,15.52
2024-03-10T22:20:14.376Z,15.05
2024-03-10T22:22:47.201Z,15.93
2024-03-10T22:25:18.670Z,14.80
2024-03-10T22:27:51.452Z,15.15
2024-03-10T22:30:22.705Z,14.95
2024-03-10T22:32:53.033Z,15.37
2024-03-10T22:35:24.044Z,14.63
2024-03-10T22:37:56.628Z,15.03
2024-03-10T22:40:29.034Z,14.98
2024-03-10T22:43:00.199Z,15.30
2024-03-10T22:45:33.957Z,14.55
2024-03-10T22:48:08.575Z,14.80
2024-03-10T22:50:37.187Z,14.18
2024-03-10T22:53:13.353Z,14.38
2024-03-10T22:55:46.077Z,14.05
2024-03-10T22:58:18.308Z,14.75
2024-03-10T23:00:47.622Z,14.05
2024-03-10T23:03:17.923Z,15.10
2024-03-10T23:05:49.290Z,14.50
2024-03-10T23:08:20.664Z,14.13
2024-03-10T23:10:55.116Z,14.00
2024-03-10T23:13:24.847Z,14.35
2024-03-10T23:15:54.828Z,14.95
2024-03-10T23:18:26.630Z,14.30
2024-03-10T23:20:57.241Z,14.32
2024-03-10T23:23:27.346Z,13.95
2024-03-10T23:25:56.521Z,14.65
2024-03-10T23:28:25.504Z,14.57
2024-03-10T23:30:54.911Z,14.23
2024-03-10T23:33:27.615Z,14.45
2024-03-10T23:35:58.455Z,14.10
2024-03-10T23:38:29.577Z,14.47
2024-03-10T23:40:59.707Z,13.85
2024-03-10T23:43:28.976Z,13.98
2024-03-10T23:45:58.313Z,14.73
2024-03-10T23:48:31.692Z,13.80
2024-03-10T23:51:02.721Z,14.07
2024-03-10T23:53:34.985Z,13.50
2024-03-10T23:56:05.926Z,14.35
2024-03-10T23:58:36.180Z,13.93
